createdAt,value
2024-03-06T00:01:15.965Z,3.62
2024-03-06T00:03:44.357Z,3.60
2024-03-06T00:06:12.645Z,3.59
2024-03-06T00:08:41.489Z,3.55
2024-03-06T00:11:10.184Z,3.53
2024-03-06T00:13:38.674Z,3.47
2024-03-06T00:16:07.161Z,3.42
2024-03-06T00:18:37.249Z,3.35
2024-03-06T00:21:06.039Z,3.30
2024-03-06T00:23:34.308Z,3.20
2024-03-06T00:26:03.589Z,3.28
2024-03-06T00:28:32.244Z,3.30
2024-03-06T00:31:00.541Z,3.35
2024-03-06T00:33:29.031Z,3.37
2024-03-06T00:35:58.558Z,3.41
2024-03-06T00:38:26.877Z,3.51
2024-03-06T00:40:55.560Z,3.49
2024-03-06T00:43:24.308Z,3.52
2024-03-06T00:45:52.702Z,3.54
2024-03-06T00:48:21.152Z,3.53
2024-03-06T00:50:49.861Z,3.58
2024-03-06T00:53:19.636Z,3.57
2024-03-06T00:55:47.793Z,3.56
2024-03-06T00:58:16.422Z,3.60
2024-03-06T01:00:45.063Z,3.64
2024-03-06T01:03:13.561Z,3.67
2024-03-06T01:05:41.780Z,3.67
2024-03-06T01:08:10.344Z,3.75
2024-03-06T01:10:41.296Z,3.72
2024-03-06T01:13:11.861Z,3.74
2024-03-06T01:15:40.514Z,3.83
2024-03-06T01:18:10.200Z,3.81
2024-03-06T01:20:38.462Z,3.80
2024-03-06T01:23:06.905Z,3.77
2024-03-06T01:25:37.005Z,3.75
2024-03-06T01:28:07.413Z,3.72
2024-03-06T01:30:36.121Z,3.72
2024-03-06T01:33:06.096Z,3.70
2024-03-06T01:35:34.520Z,3.69
2024-03-06T01:38:03.322Z,3.66
2024-03-06T01:40:31.912Z,3.64
2024-03-06T01:43:00.325Z,3.58
2024-03-06T01:45:30.149Z,3.51
2024-03-06T01:47:58.342Z,3.44
2024-03-06T01:50:26.840Z,3.38
2024-03-06T01:52:55.283Z,3.33
2024-03-06T01:55:23.693Z,3.35
2024-03-06T01:57:51.997Z,3.36
2024-03-06T02:00:20.407Z,3.30
2024-03-06T02:02:50.140Z,3.24
2024-03-06T02:05:18.435Z,3.18
2024-03-06T02:07:47.314Z,3.19
2024-03-06T02:10:17.456Z,3.14
2024-03-06T02:12:46.618Z,3.08
2024-03-06T02:15:15.879Z,3.01
2024-03-06T02:17:44.680Z,2.97
2024-03-06T02:20:17.486Z,2.88
2024-03-06T02:22:47.625Z,2.77
2024-03-06T02:25:16.866Z,2.73
2024-03-06T02:27:45.557Z,2.65
2024-03-06T02:30:14.708Z,2.62
2024-03-06T02:32:45.149Z,2.61
2024-03-06T02:35:15.001Z,2.59
2024-03-06T02:37:43.951Z,2.59
2024-03-06T02:40:13.744Z,2.59
2024-03-06T02:42:41.819Z,2.54
2024-03-06T02:45:11.039Z,2.52
2024-03-06T02:47:39.409Z,2.48
2024-03-06T02:50:09.250Z,2.50
2024-03-06T02:52:37.911Z,2.49
2024-03-06T02:55:07.695Z,2.52
2024-03-06T02:57:38.288Z,2.55
2024-03-06T03:00:10.320Z,2.60
2024-03-06T03:02:38.830Z,2.61
2024-03-06T03:05:08.068Z,2.75
2024-03-06T03:07:36.473Z,2.81
2024-03-06T03:10:06.022Z,2.79
2024-03-06T03:12:35.031Z,2.78
2024-03-06T03:15:05.251Z,2.79
2024-03-06T03:17:34.909Z,2.76
2024-03-06T03:20:11.600Z,2.72
2024-03-06T03:22:40.552Z,2.69
2024-03-06T03:25:11.402Z,2.70
2024-03-06T03:27:41.084Z,2.69
2024-03-06T03:30:12.932Z,2.65
2024-03-06T03:32:41.611Z,2.56
2024-03-06T03:35:10.720Z,2.53
2024-03-06T03:37:39.064Z,2.49
2024-03-06T03:40:09.548Z,2.42
2024-03-06T03:42:38.474Z,2.44
2024-03-06T03:45:07.613Z,2.46
2024-03-06T03:47:37.393Z,2.42
2024-03-06T03:50:10.326Z,2.38
2024-03-06T03:52:43.541Z,2.36
2024-03-06T03:55:12.576Z,2.40
2024-03-06T03:57:41.539Z,2.51
2024-03-06T04:00:12.468Z,2.52
2024-03-06T04:02:43.384Z,2.57
2024-03-06T04:05:12.199Z,2.58
2024-03-06T04:07:39.853Z,2.62
2024-03-06T04:10:11.708Z,2.58
2024-03-06T04:12:41.030Z,2.55
2024-03-06T04:15:10.652Z,2.51
2024-03-06T04:17:38.895Z,2.48
2024-03-06T04:20:13.476Z,2.49
2024-03-06T04:22:42.515Z,2.48
2024-03-06T04:25:11.753Z,2.48
2024-03-06T04:27:40.530Z,2.52
2024-03-06T04:30:10.391Z,2.49
2024-03-06T04:32:38.672Z,2.48
2024-03-06T04:35:10.694Z,2.46
2024-03-06T04:37:38.951Z,2.43
2024-03-06T04:40:09.562Z,2.37
2024-03-06T04:42:38.210Z,2.34
2024-03-06T04:45:12.737Z,2.40
2024-03-06T04:47:41.113Z,2.47
2024-03-06T04:50:12.771Z,2.54
2024-03-06T04:52:41.425Z,2.58
2024-03-06T04:55:12.434Z,2.63
2024-03-06T04:57:42.050Z,2.60
2024-03-06T05:00:12.256Z,2.56
2024-03-06T05:58:13.547Z,2.71
2024-03-06T06:00:44.352Z,2.75
2024-03-06T06:03:13.270Z,2.78
2024-03-06T06:05:42.334Z,2.81
2024-03-06T06:08:11.087Z,2.83
2024-03-06T06:10:41.279Z,2.85
2024-03-06T06:13:09.872Z,2.88
2024-03-06T06:15:38.605Z,2.89
2024-03-06T06:18:07.653Z,2.94
2024-03-06T06:20:35.989Z,2.99
2024-03-06T06:23:04.869Z,2.96
2024-03-06T06:25:33.301Z,3.05
2024-03-06T06:28:02.873Z,3.12
2024-03-06T06:30:31.846Z,3.17
2024-03-06T06:33:00.268Z,3.27
2024-03-06T06:35:28.659Z,3.32
2024-03-06T06:37:57.074Z,3.39
2024-03-06T06:40:25.317Z,3.44
2024-03-06T06:42:53.845Z,3.51
2024-03-06T06:45:24.298Z,3.60
2024-03-06T06:47:54.561Z,3.69
2024-03-06T06:50:27.066Z,3.77
2024-03-06T06:52:55.803Z,3.84
2024-03-06T06:55:25.846Z,3.95
2024-03-06T06:57:54.773Z,4.04
2024-03-06T07:00:25.793Z,4.13
2024-03-06T07:02:54.629Z,4.20
2024-03-06T07:05:23.692Z,4.28
2024-03-06T07:07:54.910Z,4.37
2024-03-06T07:10:24.924Z,4.45
2024-03-06T07:12:53.330Z,4.51
2024-03-06T07:15:21.842Z,4.60
2024-03-06T07:17:52.150Z,4.64
2024-03-06T07:20:20.850Z,4.73
2024-03-06T07:22:52.317Z,4.72
2024-03-06T07:25:22.005Z,4.74
2024-03-06T07:27:50.910Z,4.70
2024-03-06T07:30:19.664Z,4.81
2024-03-06T07:32:48.081Z,4.96
2024-03-06T07:35:19.032Z,5.00
2024-03-06T07:37:48.375Z,5.10
2024-03-06T07:40:17.023Z,5.26
2024-03-06T07:42:45.489Z,5.44
2024-03-06T07:45:13.848Z,5.69
2024-03-06T07:47:42.738Z,5.85
2024-03-06T07:50:13.779Z,6.08
2024-03-06T07:52:44.546Z,6.36
2024-03-06T07:55:12.969Z,6.56
2024-03-06T07:57:43.553Z,7.06
2024-03-06T08:00:16.602Z,7.27
2024-03-06T08:02:45.377Z,7.23
2024-03-06T08:05:14.725Z,7.07
2024-03-06T08:07:45.988Z,6.95
2024-03-06T08:10:16.071Z,7.00
2024-03-06T08:12:44.849Z,7.14
2024-03-06T08:15:14.534Z,7.21
2024-03-06T08:17:43.840Z,7.14
2024-03-06T08:20:14.280Z,7.22
2024-03-06T08:22:45.276Z,7.15
2024-03-06T08:25:14.961Z,7.28
2024-03-06T08:27:44.292Z,7.37
2024-03-06T08:30:14.101Z,7.28
2024-03-06T08:32:45.483Z,7.44
2024-03-06T08:35:18.111Z,7.60
2024-03-06T08:37:50.238Z,7.45
2024-03-06T08:40:18.809Z,7.62
2024-03-06T08:42:48.461Z,7.70
2024-03-06T08:45:17.644Z,7.62
2024-03-06T08:47:46.858Z,7.46
2024-03-06T08:50:15.837Z,7.60
2024-03-06T08:52:44.437Z,7.73
2024-03-06T08:55:14.200Z,7.56
2024-03-06T08:57:42.531Z,7.50
2024-03-06T09:00:12.920Z,7.53
2024-03-06T09:02:43.342Z,7.50
2024-03-06T09:05:14.028Z,7.47
2024-03-06T09:07:43.260Z,7.53
2024-03-06T09:10:12.732Z,7.50
2024-03-06T09:12:42.878Z,7.52
2024-03-06T09:15:12.947Z,7.60
2024-03-06T09:17:42.904Z,7.78
2024-03-06T09:20:14.663Z,7.92
2024-03-06T09:22:44.393Z,8.25
2024-03-06T09:25:15.275Z,8.72
2024-03-06T09:27:45.875Z,9.21
2024-03-06T09:30:17.347Z,9.47
2024-03-06T09:32:46.040Z,9.68
2024-03-06T09:35:19.055Z,9.92
2024-03-06T09:37:48.806Z,9.88
2024-03-06T09:40:25.473Z,9.74
2024-03-06T09:42:55.562Z,9.56
2024-03-06T09:45:24.977Z,9.71
2024-03-06T09:47:54.855Z,9.82
2024-03-06T09:50:27.618Z,9.71
2024-03-06T09:52:58.076Z,9.57
2024-03-06T09:55:28.730Z,9.49
2024-03-06T09:57:59.093Z,9.50
2024-03-06T10:00:27.624Z,9.62
2024-03-06T10:03:02.393Z,9.86
2024-03-06T10:05:33.371Z,10.17
2024-03-06T10:08:03.660Z,10.13
2024-03-06T10:10:32.554Z,10.37
2024-03-06T10:13:02.718Z,10.50
2024-03-06T10:15:31.294Z,10.52
2024-03-06T10:18:16.764Z,10.87
2024-03-06T10:20:45.748Z,10.98
2024-03-06T10:23:15.276Z,10.81
2024-03-06T10:25:45.593Z,10.99
2024-03-06T10:28:15.406Z,10.79
2024-03-06T10:30:45.209Z,10.65
2024-03-06T10:33:14.592Z,10.52
2024-03-06T10:35:44.497Z,10.37
2024-03-06T10:38:14.878Z,10.39
2024-03-06T10:40:46.265Z,10.29
2024-03-06T10:43:16.076Z,10.30
2024-03-06T10:45:51.189Z,10.52
2024-03-06T10:48:21.269Z,10.57
2024-03-06T10:50:52.366Z,10.33
2024-03-06T10:53:23.401Z,10.51
2024-03-06T10:55:53.899Z,10.48
2024-03-06T10:58:24.223Z,10.81
2024-03-06T11:00:53.700Z,10.92
2024-03-06T11:03:22.170Z,11.21
2024-03-06T11:05:53.102Z,11.11
2024-03-06T11:08:21.760Z,11.72
2024-03-06T11:10:50.897Z,11.92
2024-03-06T11:13:29.675Z,11.80
2024-03-06T11:16:03.485Z,11.94
2024-03-06T11:18:46.400Z,12.11
2024-03-06T11:21:30.844Z,12.15
2024-03-06T11:24:17.269Z,11.81
2024-03-06T11:26:48.038Z,11.58
2024-03-06T11:29:20.994Z,11.66
2024-03-06T11:32:04.986Z,11.85
2024-03-06T11:34:33.812Z,11.81
2024-03-06T11:37:06.067Z,11.88
2024-03-06T11:39:38.087Z,11.91
2024-03-06T11:42:09.823Z,11.71
2024-03-06T11:44:56.668Z,11.51
2024-03-06T11:47:26.765Z,11.85
2024-03-06T11:49:56.673Z,11.94
2024-03-06T11:52:24.868Z,11.99
2024-03-06T11:54:54.466Z,12.16
2024-03-06T11:57:25.065Z,12.09
2024-03-06T11:59:56.444Z,12.08
2024-03-06T12:02:25.063Z,12.12
2024-03-06T12:04:54.758Z,12.22
2024-03-06T12:07:23.602Z,12.02
2024-03-06T12:09:54.270Z,12.00
2024-03-06T12:12:22.966Z,11.94
2024-03-06T12:15:00.524Z,11.77
2024-03-06T12:17:29.002Z,11.76
2024-03-06T12:19:57.641Z,11.81
2024-03-06T12:22:27.974Z,11.98
2024-03-06T12:25:01.903Z,11.74
2024-03-06T12:27:30.391Z,11.70
2024-03-06T12:29:59.875Z,11.66
2024-03-06T12:32:31.072Z,11.49
2024-03-06T12:35:01.706Z,11.36
2024-03-06T12:37:34.981Z,11.27
2024-03-06T12:40:05.587Z,11.05
2024-03-06T12:42:34.687Z,10.87
2024-03-06T12:45:04.994Z,10.72
2024-03-06T12:47:33.842Z,10.96
2024-03-06T12:50:02.427Z,11.00
2024-03-06T12:52:30.845Z,10.88
2024-03-06T12:54:59.763Z,10.88
2024-03-06T12:57:29.133Z,10.86
2024-03-06T12:59:57.583Z,10.83
2024-03-06T13:02:27.521Z,10.97
2024-03-06T13:04:56.112Z,10.87
2024-03-06T13:07:24.494Z,11.02
2024-03-06T13:09:52.981Z,10.94
2024-03-06T13:12:21.764Z,11.13
2024-03-06T13:14:50.207Z,11.62
2024-03-06T13:17:19.522Z,11.53
2024-03-06T13:19:49.274Z,11.66
2024-03-06T13:22:17.387Z,11.44
2024-03-06T13:24:49.017Z,11.44
2024-03-06T13:27:20.489Z,11.32
2024-03-06T13:29:48.723Z,11.43
2024-03-06T13:32:18.138Z,11.31
2024-03-06T13:34:46.721Z,11.33
2024-03-06T13:37:16.436Z,11.27
2024-03-06T13:39:45.286Z,11.10
2024-03-06T13:42:13.518Z,11.21
2024-03-06T13:44:42.151Z,10.91
2024-03-06T13:47:18.626Z,11.02
2024-03-06T13:49:47.253Z,11.12
2024-03-06T13:52:21.192Z,11.03
2024-03-06T13:54:49.976Z,11.18
2024-03-06T13:57:18.479Z,11.21
2024-03-06T13:59:47.129Z,11.32
2024-03-06T14:02:15.571Z,11.42
2024-03-06T14:04:44.922Z,11.63
2024-03-06T14:07:14.025Z,11.55
2024-03-06T14:09:44.222Z,11.52
2024-03-06T14:12:12.569Z,11.71
2024-03-06T14:14:41.108Z,11.71
2024-03-06T14:17:10.035Z,11.70
2024-03-06T14:19:38.672Z,11.55
2024-03-06T14:22:09.126Z,11.57
2024-03-06T14:24:38.598Z,11.49
2024-03-06T14:27:08.351Z,11.47
2024-03-06T14:29:36.706Z,11.27
2024-03-06T14:32:05.806Z,11.19
2024-03-06T14:34:34.282Z,11.17
2024-03-06T14:37:02.635Z,11.06
2024-03-06T14:39:31.217Z,11.22
2024-03-06T14:41:59.452Z,11.19
2024-03-06T14:44:29.987Z,11.15
2024-03-06T14:46:58.553Z,11.14
2024-03-06T14:49:27.485Z,11.31
2024-03-06T14:51:56.716Z,11.24
2024-03-06T14:54:27.208Z,11.09
2024-03-06T14:56:55.920Z,11.25
2024-03-06T14:59:24.464Z,11.35
2024-03-06T15:01:54.786Z,11.35
2024-03-06T15:04:23.076Z,11.32
2024-03-06T15:06:55.414Z,11.22
2024-03-06T15:09:27.204Z,11.10
2024-03-06T15:11:57.030Z,11.13
2024-03-06T15:14:26.253Z,11.17
2024-03-06T15:16:56.541Z,11.12
2024-03-06T15:19:25.373Z,11.07
2024-03-06T15:21:53.615Z,10.85
2024-03-06T15:24:21.930Z,10.81
2024-03-06T15:26:50.302Z,10.87
2024-03-06T15:29:19.461Z,10.74
2024-03-06T15:31:47.916Z,10.67
2024-03-06T15:34:18.376Z,10.71
2024-03-06T15:36:46.678Z,10.70
2024-03-06T15:39:15.355Z,10.94
2024-03-06T15:41:44.385Z,10.80
2024-03-06T15:44:13.020Z,10.72
2024-03-06T15:46:46.200Z,10.75
2024-03-06T15:49:26.789Z,10.67
2024-03-06T15:51:55.791Z,10.64
2024-03-06T15:54:24.403Z,10.70
2024-03-06T15:56:53.066Z,10.62
2024-03-06T15:59:22.126Z,10.61
2024-03-06T16:01:50.640Z,10.70
2024-03-06T16:04:19.618Z,10.55
2024-03-06T16:06:49.541Z,10.42
2024-03-06T16:09:18.428Z,10.36
2024-03-06T16:11:49.876Z,10.26
2024-03-06T16:14:18.556Z,10.13
2024-03-06T16:16:46.915Z,10.05
2024-03-06T16:19:20.448Z,10.03
2024-03-06T16:21:55.059Z,10.04
2024-03-06T16:24:23.541Z,9.99
2024-03-06T16:26:51.873Z,9.97
2024-03-06T16:29:20.586Z,10.08
2024-03-06T16:31:50.606Z,10.06
2024-03-06T16:34:22.775Z,10.05
2024-03-06T16:36:51.434Z,10.00
2024-03-06T16:39:21.350Z,9.89
2024-03-06T16:41:49.879Z,9.81
2024-03-06T16:44:18.292Z,9.81
2024-03-06T16:46:46.788Z,9.70
2024-03-06T16:49:15.190Z,9.66
2024-03-06T16:51:43.485Z,9.68
2024-03-06T16:54:11.779Z,9.70
2024-03-06T16:56:41.542Z,9.70
2024-03-06T16:59:10.238Z,9.79
2024-03-06T17:01:38.630Z,9.64
2024-03-06T17:04:07.059Z,9.69
2024-03-06T17:06:35.455Z,9.68
2024-03-06T17:09:04.261Z,9.50
2024-03-06T17:11:32.707Z,9.40
2024-03-06T17:14:05.034Z,9.57
2024-03-06T17:16:33.762Z,9.47
2024-03-06T17:19:03.946Z,9.36
2024-03-06T17:21:37.849Z,9.37
2024-03-06T17:24:07.049Z,9.36
2024-03-06T17:26:39.598Z,9.34
2024-03-06T17:29:10.085Z,9.26
2024-03-06T17:31:39.151Z,9.24
2024-03-06T17:34:08.023Z,9.30
2024-03-06T17:36:37.799Z,9.32
2024-03-06T17:39:10.430Z,9.29
2024-03-06T17:41:39.608Z,9.22
2024-03-06T17:44:10.231Z,9.22
2024-03-06T17:46:38.913Z,9.18
2024-03-06T17:49:07.278Z,9.18
2024-03-06T17:51:36.494Z,9.14
2024-03-06T17:54:05.488Z,9.16
2024-03-06T17:56:33.895Z,9.09
2024-03-06T17:59:02.861Z,9.11
2024-03-06T18:01:32.563Z,9.08
2024-03-06T18:04:01.108Z,8.98
2024-03-06T18:06:29.865Z,9.06
2024-03-06T18:08:58.266Z,9.00
2024-03-06T18:11:26.875Z,8.97
2024-03-06T18:13:55.087Z,8.92
2024-03-06T18:16:23.286Z,8.86
2024-03-06T18:18:53.258Z,8.87
2024-03-06T18:21:21.992Z,9.16
2024-03-06T18:23:50.799Z,9.02
2024-03-06T18:26:21.531Z,9.01
2024-03-06T18:28:49.887Z,8.97
2024-03-06T18:31:19.186Z,8.95
2024-03-06T18:33:47.654Z,8.94
2024-03-06T18:36:17.239Z,8.75
2024-03-06T18:38:45.823Z,8.63
2024-03-06T18:41:15.916Z,8.58
2024-03-06T18:43:47.554Z,8.56
2024-03-06T18:46:16.176Z,8.57
2024-03-06T18:48:44.955Z,8.52
2024-03-06T18:51:14.017Z,8.45
2024-03-06T18:53:43.982Z,8.35
2024-03-06T18:56:12.679Z,8.31
2024-03-06T18:58:41.454Z,8.29
2024-03-06T19:01:10.312Z,8.37
2024-03-06T19:03:38.634Z,8.37
2024-03-06T19:06:08.769Z,8.32
2024-03-06T19:08:37.150Z,8.35
2024-03-06T19:11:07.049Z,8.25
2024-03-06T19:13:35.761Z,8.21
2024-03-06T19:16:04.354Z,8.30
2024-03-06T19:18:33.039Z,8.38
2024-03-06T19:21:01.498Z,8.19
2024-03-06T19:23:30.025Z,8.19
2024-03-06T19:25:58.951Z,8.25
2024-03-06T19:28:28.675Z,8.23
2024-03-06T19:31:01.099Z,8.16
2024-03-06T19:33:29.601Z,8.36
2024-03-06T19:35:58.694Z,8.21
2024-03-06T19:38:27.995Z,8.12
2024-03-06T19:40:56.367Z,8.11
2024-03-06T19:43:24.674Z,8.17
2024-03-06T19:45:54.465Z,8.18
2024-03-06T19:48:23.113Z,8.12
2024-03-06T19:50:53.718Z,8.15
2024-03-06T19:53:22.551Z,8.07
2024-03-06T19:55:51.614Z,8.06
2024-03-06T19:58:20.911Z,8.03
2024-03-06T20:00:50.047Z,8.06
2024-03-06T20:03:20.728Z,8.07
2024-03-06T20:05:49.830Z,8.01
2024-03-06T20:08:22.812Z,7.94
2024-03-06T20:10:51.877Z,7.82
2024-03-06T20:13:20.839Z,7.82
2024-03-06T20:15:50.797Z,7.71
2024-03-06T20:18:22.034Z,7.75
2024-03-06T20:20:51.246Z,7.88
2024-03-06T20:23:19.976Z,7.82
2024-03-06T20:25:48.895Z,7.73
2024-03-06T20:28:18.236Z,7.65
2024-03-06T20:30:47.985Z,7.62
2024-03-06T20:33:17.120Z,7.58
2024-03-06T20:35:50.420Z,7.53
2024-03-06T20:38:21.579Z,7.52
2024-03-06T20:40:52.129Z,7.57
2024-03-06T20:43:22.833Z,7.52
2024-03-06T20:45:53.408Z,7.50
2024-03-06T20:48:24.294Z,7.47
2024-03-06T20:50:54.154Z,7.46
2024-03-06T20:53:22.503Z,7.46
2024-03-06T20:55:51.683Z,7.36
2024-03-06T20:58:20.367Z,7.32
2024-03-06T21:00:50.659Z,7.41
2024-03-06T21:03:22.222Z,7.42
2024-03-06T21:05:52.003Z,7.38
2024-03-06T21:08:22.334Z,7.48
2024-03-06T21:10:50.762Z,7.40
2024-03-06T21:13:21.580Z,7.37
2024-03-06T21:15:50.119Z,7.36
2024-03-06T21:18:18.708Z,7.26
2024-03-06T21:20:47.495Z,7.21
2024-03-06T21:23:16.825Z,7.19
2024-03-06T21:25:46.919Z,7.10
2024-03-06T21:28:15.500Z,7.22
2024-03-06T21:30:44.493Z,7.20
2024-03-06T21:33:13.477Z,7.11
2024-03-06T21:35:43.005Z,7.13
2024-03-06T21:38:12.113Z,7.11
2024-03-06T21:40:40.645Z,7.13
2024-03-06T21:43:10.450Z,7.26
2024-03-06T21:45:38.731Z,7.12
2024-03-06T21:48:09.348Z,7.14
2024-03-06T21:50:38.432Z,7.06
2024-03-06T21:53:07.082Z,7.01
2024-03-06T21:55:35.645Z,7.16
2024-03-06T21:58:04.207Z,7.08
2024-03-06T22:00:33.732Z,7.26
2024-03-06T22:03:02.850Z,7.19
2024-03-06T22:05:31.404Z,7.11
2024-03-06T22:07:59.806Z,7.14
2024-03-06T22:10:30.210Z,7.13
2024-03-06T22:12:58.459Z,7.09
2024-03-06T22:15:27.342Z,7.03
2024-03-06T22:17:57.046Z,6.89
2024-03-06T22:20:25.651Z,6.93
2024-03-06T22:22:54.681Z,6.89
2024-03-06T22:25:23.458Z,6.81
2024-03-06T22:27:52.287Z,6.72
2024-03-06T22:30:21.805Z,6.70
2024-03-06T22:32:50.160Z,6.64
2024-03-06T22:35:20.347Z,6.47
2024-03-06T22:37:49.944Z,6.39
2024-03-06T22:40:18.566Z,6.27
2024-03-06T22:42:46.867Z,6.37
2024-03-06T22:45:15.804Z,6.38
2024-03-06T22:47:44.378Z,6.33
2024-03-06T22:50:12.917Z,6.26
2024-03-06T22:52:43.339Z,6.18
2024-03-06T22:55:11.945Z,6.10
2024-03-06T22:57:42.216Z,6.06
2024-03-06T23:00:20.933Z,6.06
2024-03-06T23:02:50.710Z,6.20
2024-03-06T23:05:19.432Z,6.06
2024-03-06T23:07:49.384Z,6.07
2024-03-06T23:10:18.982Z,5.97
2024-03-06T23:12:48.183Z,5.94
2024-03-06T23:15:17.577Z,5.86
2024-03-06T23:17:47.554Z,6.06
2024-03-06T23:20:17.789Z,6.04
2024-03-06T23:22:47.353Z,6.09
2024-03-06T23:25:18.633Z,5.99
2024-03-06T23:27:49.319Z,5.97
2024-03-06T23:30:19.318Z,5.88
2024-03-06T23:32:49.714Z,5.88
2024-03-06T23:35:19.994Z,5.86
2024-03-06T23:37:49.080Z,5.87
2024-03-06T23:40:18.913Z,5.89
2024-03-06T23:42:49.192Z,5.85
2024-03-06T23:45:19.098Z,5.74
2024-03-06T23:47:48.936Z,5.69
2024-03-06T23:50:21.068Z,5.68
2024-03-06T23:52:49.871Z,5.54
2024-03-06T23:55:19.826Z,5.56
2024-03-06T23:57:48.590Z,5.55
